createdAt,value
2017-03-25T00:00:03.202Z,740.01
2017-03-25T00:01:03.182Z,740.01
2017-03-25T00:02:03.166Z,740.02
2017-03-25T00:03:03.154Z,739.98
2017-03-25T00:04:03.139Z,740
2017-03-25T00:05:03.127Z,739.98
2017-03-25T00:06:03.110Z,739.95
2017-03-25T00:07:03.097Z,740.01
2017-03-25T00:08:03.082Z,740.02
2017-03-25T00:09:03.067Z,739.99
2017-03-25T00:10:03.054Z,740.03
2017-03-25T00:11:03.039Z,740.03
2017-03-25T00:12:03.024Z,740.05
2017-03-25T00:13:03.011Z,740.04
2017-03-25T00:14:02.997Z,740.03
2017-03-25T00:15:02.982Z,740.04
2017-03-25T00:16:02.967Z,740.02
2017-03-25T00:17:02.955Z,740
2017-03-25T00:18:02.941Z,739.98
2017-03-25T00:19:02.925Z,740.03
2017-03-25T00:20:02.911Z,740.03
2017-03-25T00:21:02.898Z,740
2017-03-25T00:22:02.883Z,740.01
2017-03-25T00:23:02.869Z,740.05
2017-03-25T00:24:02.855Z,739.99
2017-03-25T00:25:02.843Z,740.01
2017-03-25T00:26:02.833Z,739.98
2017-03-25T00:27:02.811Z,740
2017-03-25T00:28:02.797Z,740.01
2017-03-25T00:29:02.784Z,740
2017-03-25T00:30:02.768Z,740
2017-03-25T00:31:02.756Z,740.02
2017-03-25T00:32:02.742Z,740.01
2017-03-25T00:33:02.727Z,740.01
2017-03-25T00:34:02.713Z,740.03
2017-03-25T00:35:02.700Z,740.02
2017-03-25T00:36:02.686Z,740.03
2017-03-25T00:37:02.672Z,739.99
2017-03-25T00:38:02.658Z,739.98
2017-03-25T00:39:02.643Z,739.97
2017-03-25T00:40:02.631Z,739.94
2017-03-25T00:41:02.614Z,739.97
2017-03-25T00:42:02.601Z,739.97
2017-03-25T00:43:02.588Z,739.96
2017-03-25T00:44:02.575Z,739.97
2017-03-25T00:45:02.559Z,739.96
2017-03-25T00:46:02.546Z,739.96
2017-03-25T00:47:02.531Z,739.95
2017-03-25T00:48:02.519Z,739.93
2017-03-25T00:49:02.503Z,739.9
2017-03-25T00:50:02.491Z,739.91
2017-03-25T00:51:02.477Z,739.92
2017-03-25T00:52:02.461Z,739.9
2017-03-25T00:53:02.449Z,739.9
2017-03-25T00:54:02.435Z,739.87
2017-03-25T00:55:02.421Z,739.85
2017-03-25T00:56:02.409Z,739.86
2017-03-25T00:57:02.393Z,739.89
2017-03-25T00:58:02.379Z,739.84
2017-03-25T00:59:02.364Z,739.88
2017-03-25T01:00:02.352Z,739.86
2017-03-25T01:01:02.337Z,739.85
2017-03-25T01:02:02.326Z,739.86
2017-03-25T01:03:02.309Z,739.87
2017-03-25T01:04:02.296Z,739.86
2017-03-25T01:05:02.283Z,739.86
2017-03-25T01:06:02.269Z,739.88
2017-03-25T01:07:02.255Z,739.87
2017-03-25T01:08:02.243Z,739.82
2017-03-25T01:09:02.228Z,739.8
2017-03-25T01:10:02.215Z,739.84
2017-03-25T01:11:02.200Z,739.79
2017-03-25T01:12:02.189Z,739.8
2017-03-25T01:13:02.174Z,739.77
2017-03-25T01:14:02.161Z,739.76
2017-03-25T01:15:02.147Z,739.71
2017-03-25T01:16:02.133Z,739.74
2017-03-25T01:17:02.119Z,739.74
2017-03-25T01:18:02.105Z,739.76
2017-03-25T01:19:02.092Z,739.75
2017-03-25T01:20:02.078Z,739.77
2017-03-25T01:21:02.063Z,739.75
2017-03-25T01:22:02.049Z,739.75
2017-03-25T01:23:02.036Z,739.73
2017-03-25T01:24:02.022Z,739.7
2017-03-25T01:25:02.009Z,739.69
2017-03-25T01:26:01.994Z,739.7
2017-03-25T01:27:01.980Z,739.67
2017-03-25T01:28:01.965Z,739.71
2017-03-25T01:29:01.951Z,739.67
2017-03-25T01:30:01.937Z,739.67
2017-03-25T01:31:01.923Z,739.62
2017-03-25T01:32:01.907Z,739.68
2017-03-25T01:33:01.893Z,739.66
2017-03-25T01:34:01.878Z,739.66
2017-03-25T01:35:01.866Z,739.64
2017-03-25T01:36:01.851Z,739.61
2017-03-25T01:37:01.835Z,739.63
2017-03-25T01:38:01.821Z,739.61
2017-03-25T01:39:01.806Z,739.58
2017-03-25T01:40:01.792Z,739.55
2017-03-25T01:41:01.777Z,739.52
2017-03-25T01:42:01.763Z,739.49
2017-03-25T01:43:01.748Z,739.47
2017-03-25T01:44:01.733Z,739.48
2017-03-25T01:45:01.718Z,739.45
2017-03-25T01:46:01.706Z,739.44
2017-03-25T01:47:01.689Z,739.45
2017-03-25T01:48:01.675Z,739.43
2017-03-25T01:49:01.690Z,739.41
2017-03-25T01:50:01.646Z,739.43
2017-03-25T01:51:01.631Z,739.41
2017-03-25T01:52:01.617Z,739.42
2017-03-25T01:53:01.601Z,739.38
2017-03-25T01:54:01.586Z,739.4
2017-03-25T01:55:01.572Z,739.37
2017-03-25T01:56:01.558Z,739.36
2017-03-25T01:57:01.545Z,739.37
2017-03-25T01:58:01.530Z,739.34
2017-03-25T01:59:01.516Z,739.37
2017-03-25T02:00:01.502Z,739.33
2017-03-25T02:01:01.486Z,739.31
2017-03-25T02:02:01.474Z,739.35
2017-03-25T02:03:01.460Z,739.3
2017-03-25T02:04:01.446Z,739.33
2017-03-25T02:05:01.430Z,739.3
2017-03-25T02:06:01.417Z,739.28
2017-03-25T02:07:01.402Z,739.29
2017-03-25T02:08:01.388Z,739.29
2017-03-25T02:09:01.373Z,739.31
2017-03-25T02:10:01.360Z,739.27
2017-03-25T02:11:01.346Z,739.23
2017-03-25T02:12:01.331Z,739.24
2017-03-25T02:13:01.316Z,739.22
2017-03-25T02:14:01.303Z,739.23
2017-03-25T02:15:01.289Z,739.23
2017-03-25T02:16:01.273Z,739.23
2017-03-25T02:17:01.271Z,739.23
2017-03-25T02:18:01.245Z,739.25
2017-03-25T02:19:01.232Z,739.24
2017-03-25T02:20:01.216Z,739.22
2017-03-25T02:21:01.202Z,739.24
2017-03-25T02:22:01.189Z,739.22
2017-03-25T02:23:01.173Z,739.21
2017-03-25T02:24:01.159Z,739.24
2017-03-25T02:25:01.146Z,739.18
2017-03-25T02:26:01.131Z,739.17
2017-03-25T02:27:01.118Z,739.19
2017-03-25T02:28:01.104Z,739.14
2017-03-25T02:29:01.091Z,739.14
2017-03-25T02:30:01.077Z,739.16
2017-03-25T02:31:01.063Z,739.15
2017-03-25T02:32:01.049Z,739.14
2017-03-25T02:33:01.036Z,739.19
2017-03-25T02:34:01.021Z,739.14
2017-03-25T02:35:01.009Z,739.16
2017-03-25T02:36:00.995Z,739.11
2017-03-25T02:37:00.981Z,739.1
2017-03-25T02:38:00.966Z,739.09
2017-03-25T02:39:00.953Z,739.05
2017-03-25T02:40:00.939Z,739.06
2017-03-25T02:41:00.926Z,739.03
2017-03-25T02:42:00.913Z,739.05
2017-03-25T02:43:00.899Z,739.05
2017-03-25T02:44:00.884Z,739.07
2017-03-25T02:45:00.870Z,739.07
2017-03-25T02:46:00.857Z,739.06
2017-03-25T02:47:00.842Z,739.1
2017-03-25T02:48:00.829Z,739.09
2017-03-25T02:49:00.814Z,739.07
2017-03-25T02:50:00.800Z,739.1
2017-03-25T02:51:00.787Z,739.09
2017-03-25T02:52:00.771Z,739.05
2017-03-25T02:53:00.758Z,739.07
2017-03-25T02:54:00.743Z,739.1
2017-03-25T02:55:00.728Z,739.03
2017-03-25T02:56:00.714Z,739.04
2017-03-25T02:57:00.700Z,739.01
2017-03-25T02:58:00.686Z,739.02
2017-03-25T02:59:00.671Z,739.03
2017-03-25T03:00:00.656Z,739
2017-03-25T03:01:00.643Z,738.99
2017-03-25T03:02:00.627Z,738.96
2017-03-25T03:03:00.613Z,739
2017-03-25T03:04:00.599Z,739
2017-03-25T03:05:00.585Z,738.96
2017-03-25T03:06:00.570Z,738.95
2017-03-25T03:07:00.561Z,738.92
2017-03-25T03:08:00.540Z,738.93
2017-03-25T03:09:00.527Z,738.91
2017-03-25T03:10:00.511Z,738.93
2017-03-25T03:11:00.496Z,738.9
2017-03-25T03:12:00.483Z,738.93
2017-03-25T03:13:00.468Z,738.9
2017-03-25T03:14:00.452Z,738.86
2017-03-25T03:15:00.439Z,738.86
2017-03-25T03:16:00.425Z,738.86
2017-03-25T03:17:00.410Z,738.85
2017-03-25T03:18:00.394Z,738.84
2017-03-25T03:19:00.380Z,738.86
2017-03-25T03:20:00.367Z,738.85
2017-03-25T03:21:00.352Z,738.86
2017-03-25T03:22:00.337Z,738.84
2017-03-25T03:23:00.324Z,738.8
2017-03-25T03:24:00.309Z,738.8
2017-03-25T03:25:00.294Z,738.8
2017-03-25T03:26:00.282Z,738.82
2017-03-25T03:27:00.267Z,738.84
2017-03-25T03:28:00.252Z,738.82
2017-03-25T03:29:00.238Z,738.84
2017-03-25T03:30:00.226Z,738.76
2017-03-25T03:31:00.210Z,738.81
2017-03-25T03:32:00.196Z,738.8
2017-03-25T03:33:00.181Z,738.77
2017-03-25T03:34:00.168Z,738.76
2017-03-25T03:35:00.154Z,738.81
2017-03-25T03:36:00.182Z,738.77
2017-03-25T03:37:00.124Z,738.8
2017-03-25T03:38:00.109Z,738.76
2017-03-25T03:39:00.096Z,738.78
2017-03-25T03:40:00.080Z,738.76
2017-03-25T03:41:00.066Z,738.74
2017-03-25T03:42:00.053Z,738.73
2017-03-25T03:43:00.039Z,738.73
2017-03-25T03:44:00.024Z,738.7
2017-03-25T03:45:00.010Z,738.75
2017-03-25T03:45:59.996Z,738.73
2017-03-25T03:46:59.982Z,738.72
2017-03-25T03:47:59.967Z,738.73
2017-03-25T03:48:59.954Z,738.77
2017-03-25T03:49:59.939Z,738.73
2017-03-25T03:50:59.925Z,738.72
2017-03-25T03:51:59.910Z,738.72
2017-03-25T03:52:59.906Z,738.63
2017-03-25T03:53:59.883Z,738.7
2017-03-25T03:54:59.869Z,738.67
2017-03-25T03:55:59.856Z,738.65
2017-03-25T03:56:59.842Z,738.65
2017-03-25T03:57:59.827Z,738.61
2017-03-25T03:58:59.813Z,738.65
2017-03-25T03:59:59.801Z,738.63
2017-03-25T04:00:59.787Z,738.64
2017-03-25T04:01:59.772Z,738.63
2017-03-25T04:02:59.760Z,738.64
2017-03-25T04:03:59.746Z,738.6
2017-03-25T04:04:59.734Z,738.57
2017-03-25T04:05:59.718Z,738.58
2017-03-25T04:06:59.704Z,738.58
2017-03-25T04:07:59.692Z,738.57
2017-03-25T04:08:59.679Z,738.54
2017-03-25T04:09:59.665Z,738.54
2017-03-25T04:10:59.653Z,738.53
2017-03-25T04:11:59.639Z,738.58
2017-03-25T04:12:59.625Z,738.55
2017-03-25T04:13:59.613Z,738.55
2017-03-25T04:14:59.600Z,738.55
2017-03-25T04:15:59.588Z,738.53
2017-03-25T04:16:59.574Z,738.52
2017-03-25T04:17:59.562Z,738.54
2017-03-25T04:18:59.549Z,738.52
2017-03-25T04:19:59.536Z,738.49
2017-03-25T04:20:59.522Z,738.48
2017-03-25T04:21:59.511Z,738.51
2017-03-25T04:22:59.497Z,738.49
2017-03-25T04:23:59.485Z,738.51
2017-03-25T04:24:59.471Z,738.51
2017-03-25T04:25:59.458Z,738.51
2017-03-25T04:26:59.444Z,738.52
2017-03-25T04:27:59.432Z,738.5
2017-03-25T04:28:59.424Z,738.49
2017-03-25T04:29:59.408Z,738.47
2017-03-25T04:30:59.393Z,738.5
2017-03-25T04:31:59.381Z,738.5
2017-03-25T04:32:59.369Z,738.5
2017-03-25T04:33:59.356Z,738.49
2017-03-25T04:34:59.341Z,738.46
2017-03-25T04:35:59.328Z,738.5
2017-03-25T04:36:59.317Z,738.46
2017-03-25T04:37:59.301Z,738.5
2017-03-25T04:38:59.289Z,738.52
2017-03-25T04:39:59.276Z,738.45
2017-03-25T04:40:59.265Z,738.47
2017-03-25T04:41:59.254Z,738.44
2017-03-25T04:42:59.238Z,738.45
2017-03-25T04:43:59.225Z,738.51
2017-03-25T04:44:59.213Z,738.51
2017-03-25T04:45:59.199Z,738.53
2017-03-25T04:46:59.186Z,738.48
2017-03-25T04:47:59.173Z,738.45
2017-03-25T04:48:59.159Z,738.55
2017-03-25T04:49:59.148Z,738.51
2017-03-25T04:50:59.134Z,738.55
2017-03-25T04:51:59.122Z,738.52
2017-03-25T04:52:59.107Z,738.47
2017-03-25T04:53:59.095Z,738.47
2017-03-25T04:54:59.087Z,738.46
2017-03-25T04:55:59.068Z,738.48
2017-03-25T04:56:59.054Z,738.47
2017-03-25T04:57:59.043Z,738.46
2017-03-25T04:58:59.030Z,738.48
2017-03-25T04:59:59.017Z,738.49
2017-03-25T05:00:59.006Z,738.5
2017-03-25T05:01:58.991Z,738.53
2017-03-25T05:02:58.978Z,738.5
2017-03-25T05:03:58.966Z,738.48
2017-03-25T05:04:58.953Z,738.56
2017-03-25T05:05:58.939Z,738.52
2017-03-25T05:06:58.962Z,738.52
2017-03-25T05:07:58.914Z,738.52
2017-03-25T05:08:58.900Z,738.53
2017-03-25T05:09:58.886Z,738.47
2017-03-25T05:10:58.873Z,738.51
2017-03-25T05:11:58.861Z,738.52
2017-03-25T05:12:58.848Z,738.5
2017-03-25T05:13:58.837Z,738.48
2017-03-25T05:14:58.822Z,738.52
2017-03-25T05:15:58.810Z,738.54
2017-03-25T05:16:58.796Z,738.53
2017-03-25T05:17:58.782Z,738.52
2017-03-25T05:18:58.769Z,738.51
2017-03-25T05:19:58.757Z,738.51
2017-03-25T05:20:58.743Z,738.47
2017-03-25T05:21:58.729Z,738.48
2017-03-25T05:22:58.716Z,738.48
2017-03-25T05:23:58.704Z,738.49
2017-03-25T05:24:58.689Z,738.48
2017-03-25T05:25:58.674Z,738.48
2017-03-25T05:26:58.661Z,738.49
2017-03-25T05:27:58.648Z,738.46
2017-03-25T05:28:58.636Z,738.45
2017-03-25T05:29:58.622Z,738.51
2017-03-25T05:30:58.610Z,738.47
2017-03-25T05:31:58.601Z,738.47
2017-03-25T05:32:58.580Z,738.46
2017-03-25T05:33:58.568Z,738.46
2017-03-25T05:34:58.554Z,738.48
2017-03-25T05:35:58.542Z,738.49
2017-03-25T05:36:58.528Z,738.5
2017-03-25T05:37:58.516Z,738.48
2017-03-25T05:38:58.503Z,738.5
2017-03-25T05:39:58.491Z,738.48
2017-03-25T05:40:58.477Z,738.52
2017-03-25T05:41:58.464Z,738.49
2017-03-25T05:42:58.452Z,738.54
2017-03-25T05:43:58.437Z,738.5
2017-03-25T05:44:58.425Z,738.5
2017-03-25T05:45:58.413Z,738.48
2017-03-25T05:46:58.401Z,738.51
2017-03-25T05:47:58.388Z,738.49
2017-03-25T05:48:58.383Z,738.52
2017-03-25T05:49:58.363Z,738.53
2017-03-25T05:50:58.350Z,738.5
2017-03-25T05:51:58.338Z,738.53
2017-03-25T05:52:58.327Z,738.5
2017-03-25T05:53:58.314Z,738.53
2017-03-25T05:54:58.302Z,738.53
2017-03-25T05:55:58.289Z,738.48
2017-03-25T05:56:58.280Z,738.53
2017-03-25T05:57:58.267Z,738.54
2017-03-25T05:58:58.255Z,738.53
2017-03-25T05:59:58.243Z,738.48
2017-03-25T06:00:58.231Z,738.52
2017-03-25T06:01:58.220Z,738.47
2017-03-25T06:02:58.207Z,738.5
2017-03-25T06:03:58.195Z,738.47
2017-03-25T06:04:58.184Z,738.5
2017-03-25T06:05:58.170Z,738.47
2017-03-25T06:06:58.158Z,738.52
2017-03-25T06:07:58.145Z,738.52
2017-03-25T06:08:58.135Z,738.51
2017-03-25T06:09:58.124Z,738.53
2017-03-25T06:10:58.112Z,738.52
2017-03-25T06:11:58.101Z,738.53
2017-03-25T06:12:58.088Z,738.53
2017-03-25T06:13:58.077Z,738.51
2017-03-25T06:14:58.067Z,738.51
2017-03-25T06:15:58.056Z,738.47
2017-03-25T06:16:58.043Z,738.46
2017-03-25T06:17:58.034Z,738.46
2017-03-25T06:18:58.026Z,738.45
2017-03-25T06:19:58.012Z,738.48
2017-03-25T06:20:58.000Z,738.47
2017-03-25T06:21:57.990Z,738.48
2017-03-25T06:22:57.980Z,738.47
2017-03-25T06:23:57.968Z,738.48
2017-03-25T06:24:57.957Z,738.47
2017-03-25T06:25:57.947Z,738.51
2017-03-25T06:26:57.937Z,738.54
2017-03-25T06:27:57.925Z,738.51
2017-03-25T06:28:57.916Z,738.5
2017-03-25T06:29:57.906Z,738.51
2017-03-25T06:30:57.896Z,738.48
2017-03-25T06:31:57.885Z,738.52
2017-03-25T06:32:57.877Z,738.5
2017-03-25T06:33:57.868Z,738.49
2017-03-25T06:34:57.855Z,738.53
2017-03-25T06:35:57.847Z,738.51
2017-03-25T06:36:57.839Z,738.47
2017-03-25T06:37:57.830Z,738.48
2017-03-25T06:38:57.821Z,738.48
2017-03-25T06:39:57.811Z,738.44
2017-03-25T06:40:57.801Z,738.46
2017-03-25T06:41:57.794Z,738.45
2017-03-25T06:42:57.784Z,738.48
2017-03-25T06:43:57.777Z,738.48
2017-03-25T06:44:57.770Z,738.46
2017-03-25T06:45:57.759Z,738.47
2017-03-25T06:46:57.753Z,738.46
2017-03-25T06:47:57.746Z,738.45
2017-03-25T06:48:57.738Z,738.45
2017-03-25T06:49:57.730Z,738.46
2017-03-25T06:50:57.722Z,738.42
2017-03-25T06:51:57.714Z,738.46
2017-03-25T06:52:57.707Z,738.48
2017-03-25T06:53:57.701Z,738.5
2017-03-25T06:54:57.694Z,738.48
2017-03-25T06:55:57.689Z,738.46
2017-03-25T06:56:57.679Z,738.44
2017-03-25T06:57:57.673Z,738.43
2017-03-25T06:58:57.667Z,738.48
2017-03-25T06:59:57.659Z,738.46
2017-03-25T07:00:57.653Z,738.46
2017-03-25T07:01:57.646Z,738.49
2017-03-25T07:02:57.640Z,738.53
2017-03-25T07:03:57.633Z,738.54
2017-03-25T07:04:57.627Z,738.5
2017-03-25T07:05:57.620Z,738.52
2017-03-25T07:06:57.614Z,738.49
2017-03-25T07:07:57.608Z,738.53
2017-03-25T07:08:57.601Z,738.56
2017-03-25T07:09:57.596Z,738.54
2017-03-25T07:10:57.591Z,738.54
2017-03-25T07:11:57.584Z,738.56
2017-03-25T07:12:57.579Z,738.51
2017-03-25T07:13:57.572Z,738.53
2017-03-25T07:14:57.567Z,738.51
2017-03-25T07:15:57.560Z,738.56
2017-03-25T07:16:57.556Z,738.54
2017-03-25T07:17:57.553Z,738.53
2017-03-25T07:18:57.545Z,738.56
2017-03-25T07:19:57.539Z,738.52
2017-03-25T07:20:57.534Z,738.5
2017-03-25T07:21:57.528Z,738.5
2017-03-25T07:22:57.522Z,738.5
2017-03-25T07:23:57.516Z,738.53
2017-03-25T07:24:57.510Z,738.46
2017-03-25T07:25:57.505Z,738.48
2017-03-25T07:26:57.499Z,738.51
2017-03-25T07:27:57.498Z,738.52
2017-03-25T07:28:57.489Z,738.5
2017-03-25T07:29:57.482Z,738.51
2017-03-25T07:30:57.478Z,738.48
2017-03-25T07:31:57.473Z,738.57
2017-03-25T07:32:57.467Z,738.55
2017-03-25T07:33:57.460Z,738.55
2017-03-25T07:34:57.456Z,738.56
2017-03-25T07:35:57.451Z,738.58
2017-03-25T07:36:57.444Z,738.58
2017-03-25T07:37:57.440Z,738.52
2017-03-25T07:38:57.435Z,738.55
2017-03-25T07:39:57.429Z,738.55
2017-03-25T07:40:57.423Z,738.55
2017-03-25T07:41:57.419Z,738.57
2017-03-25T07:42:57.415Z,738.54
2017-03-25T07:43:57.411Z,738.5
2017-03-25T07:44:57.406Z,738.54
2017-03-25T07:45:57.400Z,738.53
2017-03-25T07:46:57.397Z,738.53
2017-03-25T07:47:57.391Z,738.56
2017-03-25T07:48:57.388Z,738.53
2017-03-25T07:49:57.383Z,738.55
2017-03-25T07:50:57.379Z,738.58
2017-03-25T07:51:57.375Z,738.55
2017-03-25T07:52:57.371Z,738.56
2017-03-25T07:53:57.366Z,738.61
2017-03-25T07:54:57.366Z,738.57
2017-03-25T07:55:57.357Z,738.59
2017-03-25T07:56:57.356Z,738.55
2017-03-25T07:57:57.350Z,738.56
2017-03-25T07:58:57.347Z,738.62
2017-03-25T07:59:57.343Z,738.58
2017-03-25T08:00:57.338Z,738.6
2017-03-25T08:01:57.336Z,738.61
2017-03-25T08:02:57.332Z,738.58
2017-03-25T08:03:57.328Z,738.61
2017-03-25T08:04:57.323Z,738.61
2017-03-25T08:05:57.320Z,738.58
2017-03-25T08:06:57.314Z,738.55
2017-03-25T08:07:57.312Z,738.53
2017-03-25T08:08:57.308Z,738.49
2017-03-25T08:09:57.302Z,738.49
2017-03-25T08:10:57.296Z,738.5
2017-03-25T08:11:57.291Z,738.48
2017-03-25T08:12:57.285Z,738.48
2017-03-25T08:13:57.279Z,738.46
2017-03-25T08:14:57.273Z,738.46
2017-03-25T08:15:57.267Z,738.45
2017-03-25T08:16:57.259Z,738.44
2017-03-25T08:17:57.256Z,738.46
2017-03-25T08:18:57.244Z,738.45
2017-03-25T08:19:57.237Z,738.46
2017-03-25T08:20:57.227Z,738.46
2017-03-25T08:21:57.222Z,738.5
2017-03-25T08:22:57.213Z,738.48
2017-03-25T08:23:57.206Z,738.53
2017-03-25T08:24:57.198Z,738.49
2017-03-25T08:25:57.190Z,738.5
2017-03-25T08:26:57.184Z,738.51
2017-03-25T08:27:57.177Z,738.54
2017-03-25T08:28:57.168Z,738.51
2017-03-25T08:29:57.163Z,738.55
2017-03-25T08:30:57.155Z,738.52
2017-03-25T08:31:57.148Z,738.54
2017-03-25T08:32:57.142Z,738.56
2017-03-25T08:33:57.135Z,738.56
2017-03-25T08:34:57.128Z,738.51
2017-03-25T08:35:57.123Z,738.51
2017-03-25T08:36:57.118Z,738.56
2017-03-25T08:37:57.111Z,738.57
2017-03-25T08:38:57.107Z,738.57
2017-03-25T08:39:57.100Z,738.58
2017-03-25T08:40:57.094Z,738.55
2017-03-25T08:41:57.090Z,738.58
2017-03-25T08:42:57.085Z,738.57
2017-03-25T08:43:57.081Z,738.51
2017-03-25T08:44:57.076Z,738.54
2017-03-25T08:45:57.072Z,738.51
2017-03-25T08:46:57.065Z,738.51
2017-03-25T08:47:57.061Z,738.54
2017-03-25T08:48:57.056Z,738.56
2017-03-25T08:49:57.052Z,738.57
2017-03-25T08:50:57.049Z,738.54
2017-03-25T08:51:57.045Z,738.56
2017-03-25T08:52:57.041Z,738.54
2017-03-25T08:53:57.035Z,738.51
2017-03-25T08:54:57.032Z,738.53
2017-03-25T08:55:57.029Z,738.58
2017-03-25T08:56:57.025Z,738.53
2017-03-25T08:57:57.021Z,738.54
2017-03-25T08:58:57.018Z,738.58
2017-03-25T08:59:57.014Z,738.6
2017-03-25T09:00:57.011Z,738.61
2017-03-25T09:01:57.009Z,738.57
2017-03-25T09:02:57.006Z,738.59
2017-03-25T09:03:57.004Z,738.57
2017-03-25T09:04:57.000Z,738.55
2017-03-25T09:05:56.997Z,738.58
2017-03-25T09:06:56.995Z,738.5
2017-03-25T09:07:56.992Z,738.51
2017-03-25T09:08:56.989Z,738.54
2017-03-25T09:09:56.985Z,738.48
2017-03-25T09:10:56.982Z,738.53
2017-03-25T09:11:56.978Z,738.49
2017-03-25T09:12:56.977Z,738.51
2017-03-25T09:13:56.974Z,738.51
2017-03-25T09:14:56.971Z,738.51
2017-03-25T09:15:56.967Z,738.53
2017-03-25T09:16:56.963Z,738.53
2017-03-25T09:17:56.962Z,738.53
2017-03-25T09:18:56.959Z,738.52
2017-03-25T09:19:56.953Z,738.47
2017-03-25T09:20:56.952Z,738.48
2017-03-25T09:21:56.948Z,738.47
2017-03-25T09:22:56.949Z,738.5
2017-03-25T09:23:56.941Z,738.49
2017-03-25T09:24:56.937Z,738.47
2017-03-25T09:25:56.935Z,738.49
2017-03-25T09:26:56.931Z,738.47
2017-03-25T09:27:56.933Z,738.49
2017-03-25T09:28:56.925Z,738.52
2017-03-25T09:29:56.922Z,738.5
2017-03-25T09:30:56.918Z,738.48
2017-03-25T09:31:56.914Z,738.52
2017-03-25T09:32:56.912Z,738.54
2017-03-25T09:33:56.909Z,738.49
2017-03-25T09:34:56.905Z,738.54
2017-03-25T09:35:56.901Z,738.52
2017-03-25T09:36:56.899Z,738.55
2017-03-25T09:37:56.896Z,738.53
2017-03-25T09:38:56.892Z,738.56
2017-03-25T09:39:56.888Z,738.6
2017-03-25T09:40:56.894Z,738.58
2017-03-25T09:41:56.883Z,738.59
2017-03-25T09:42:56.880Z,738.58
2017-03-25T09:43:56.877Z,738.54
2017-03-25T09:44:56.873Z,738.55
2017-03-25T09:45:56.871Z,738.6
2017-03-25T09:46:56.868Z,738.51
2017-03-25T09:47:56.865Z,738.5
2017-03-25T09:48:56.862Z,738.51
2017-03-25T09:49:56.859Z,738.56
2017-03-25T09:50:56.854Z,738.51
2017-03-25T09:51:56.852Z,738.49
2017-03-25T09:52:56.847Z,738.49
2017-03-25T09:53:56.846Z,738.52
2017-03-25T09:54:56.842Z,738.5
2017-03-25T09:55:56.838Z,738.55
2017-03-25T09:56:56.836Z,738.55
2017-03-25T09:57:56.832Z,738.53
2017-03-25T09:58:56.831Z,738.57
2017-03-25T09:59:56.827Z,738.57
2017-03-25T10:00:56.823Z,738.56
2017-03-25T10:01:56.822Z,738.59
2017-03-25T10:02:56.819Z,738.56
2017-03-25T10:03:56.814Z,738.56
2017-03-25T10:04:56.813Z,738.57
2017-03-25T10:05:56.810Z,738.57
2017-03-25T10:06:56.807Z,738.61
2017-03-25T10:07:56.804Z,738.55
2017-03-25T10:08:56.801Z,738.53
2017-03-25T10:09:56.802Z,738.49
2017-03-25T10:10:56.797Z,738.53
2017-03-25T10:11:56.795Z,738.57
2017-03-25T10:12:56.792Z,738.52
2017-03-25T10:13:56.790Z,738.5
2017-03-25T10:14:56.786Z,738.51
2017-03-25T10:15:56.787Z,738.5
2017-03-25T10:16:56.782Z,738.55
2017-03-25T10:17:56.778Z,738.49
2017-03-25T10:18:56.776Z,738.54
2017-03-25T10:19:56.772Z,738.54
2017-03-25T10:20:56.770Z,738.56
2017-03-25T10:21:56.767Z,738.56
2017-03-25T10:22:56.765Z,738.56
2017-03-25T10:23:56.762Z,738.56
2017-03-25T10:24:56.760Z,738.55
2017-03-25T10:25:56.756Z,738.57
2017-03-25T10:26:56.753Z,738.55
2017-03-25T10:27:56.750Z,738.53
2017-03-25T10:28:56.749Z,738.52
2017-03-25T10:29:56.746Z,738.5
2017-03-25T10:30:56.741Z,738.57
2017-03-25T10:31:56.740Z,738.54
2017-03-25T10:32:56.736Z,738.54
2017-03-25T10:33:56.734Z,738.54
2017-03-25T10:34:56.730Z,738.56
2017-03-25T10:35:56.726Z,738.54
2017-03-25T10:36:56.728Z,738.51
2017-03-25T10:37:56.719Z,738.55
2017-03-25T10:38:56.715Z,738.56
2017-03-25T10:39:56.711Z,738.54
2017-03-25T10:40:56.708Z,738.54
2017-03-25T10:41:56.707Z,738.51
2017-03-25T10:42:56.700Z,738.54
2017-03-25T10:43:56.696Z,738.52
2017-03-25T10:44:56.692Z,738.52
2017-03-25T10:45:56.688Z,738.56
2017-03-25T10:46:56.683Z,738.54
2017-03-25T10:47:56.678Z,738.48
2017-03-25T10:48:56.676Z,738.54
2017-03-25T10:49:56.671Z,738.5
2017-03-25T10:50:56.666Z,738.5
2017-03-25T10:51:56.662Z,738.53
2017-03-25T10:52:56.658Z,738.52
2017-03-25T10:53:56.655Z,738.52
2017-03-25T10:54:56.649Z,738.49
2017-03-25T10:55:56.646Z,738.5
2017-03-25T10:56:56.643Z,738.49
2017-03-25T10:57:56.639Z,738.52
2017-03-25T10:58:56.639Z,738.5
2017-03-25T10:59:56.630Z,738.5
2017-03-25T11:00:56.626Z,738.52
2017-03-25T11:01:56.619Z,738.5
2017-03-25T11:02:56.616Z,738.47
2017-03-25T11:03:56.612Z,738.47
2017-03-25T11:04:56.606Z,738.5
2017-03-25T11:05:56.600Z,738.52
2017-03-25T11:06:56.597Z,738.52
2017-03-25T11:07:56.591Z,738.48
2017-03-25T11:08:56.587Z,738.46
2017-03-25T11:09:56.583Z,738.44
2017-03-25T11:10:56.576Z,738.44
2017-03-25T11:11:56.572Z,738.44
2017-03-25T11:12:56.566Z,738.41
2017-03-25T11:13:56.561Z,738.44
2017-03-25T11:14:56.556Z,738.38
2017-03-25T11:15:56.552Z,738.4
2017-03-25T11:16:56.544Z,738.36
2017-03-25T11:17:56.540Z,738.38
2017-03-25T11:18:56.533Z,738.3
2017-03-25T11:19:56.528Z,738.38
2017-03-25T11:20:56.521Z,738.35
2017-03-25T11:21:56.517Z,738.28
2017-03-25T11:22:56.510Z,738.29
2017-03-25T11:23:56.503Z,738.36
2017-03-25T11:24:56.496Z,738.38
2017-03-25T11:25:56.490Z,738.31
2017-03-25T11:26:56.485Z,738.31
2017-03-25T11:27:56.477Z,738.32
2017-03-25T11:28:56.471Z,738.31
2017-03-25T11:29:56.464Z,738.27
2017-03-25T11:30:56.458Z,738.3
2017-03-25T11:31:56.451Z,738.29
2017-03-25T11:32:56.445Z,738.27
2017-03-25T11:33:56.439Z,738.28
2017-03-25T11:34:56.431Z,738.33
2017-03-25T11:35:56.425Z,738.27
2017-03-25T11:36:56.419Z,738.27
2017-03-25T11:37:56.413Z,738.28
2017-03-25T11:38:56.405Z,738.24
2017-03-25T11:39:56.397Z,738.26
2017-03-25T11:40:56.391Z,738.17
2017-03-25T11:41:56.383Z,738.16
2017-03-25T11:42:56.377Z,738.21
2017-03-25T11:43:56.369Z,738.19
2017-03-25T11:44:56.361Z,738.22
2017-03-25T11:45:56.556Z,738.14
2017-03-25T11:46:56.347Z,738.14
2017-03-25T11:47:56.340Z,738.14
2017-03-25T11:48:56.334Z,738.09
2017-03-25T11:49:56.325Z,738.14
2017-03-25T11:50:56.319Z,738.13
2017-03-25T11:51:56.311Z,738.12
2017-03-25T11:52:56.305Z,738.15
2017-03-25T11:53:56.298Z,738.13
2017-03-25T11:54:56.291Z,738.15
2017-03-25T11:55:56.285Z,738.11
2017-03-25T11:56:56.277Z,738.1
2017-03-25T11:57:56.269Z,738.04
2017-03-25T11:58:56.264Z,738.04
2017-03-25T11:59:56.310Z,738.06
2017-03-25T12:00:56.249Z,738.04
2017-03-25T12:01:56.243Z,738.12
2017-03-25T12:02:56.236Z,738.04
2017-03-25T12:03:56.229Z,737.97
2017-03-25T12:04:56.222Z,738.01
2017-03-25T12:05:56.215Z,738
2017-03-25T12:06:56.205Z,738.03
2017-03-25T12:07:56.200Z,738.01
2017-03-25T12:08:56.191Z,738.03
2017-03-25T12:09:56.184Z,737.98
2017-03-25T12:10:56.178Z,737.94
2017-03-25T12:11:56.172Z,737.91
2017-03-25T12:12:56.164Z,737.94
2017-03-25T12:13:56.157Z,737.95
2017-03-25T12:14:56.148Z,737.95
2017-03-25T12:15:56.141Z,737.95
2017-03-25T12:16:56.134Z,737.93
2017-03-25T12:17:56.125Z,737.93
2017-03-25T12:18:56.116Z,737.91
2017-03-25T12:19:56.108Z,737.85
2017-03-25T12:20:56.101Z,737.83
2017-03-25T12:21:56.090Z,737.88
2017-03-25T12:22:56.081Z,737.88
2017-03-25T12:23:56.074Z,737.87
2017-03-25T12:24:56.065Z,737.83
2017-03-25T12:25:56.054Z,737.82
2017-03-25T12:26:56.044Z,737.84
2017-03-25T12:27:56.037Z,737.81
2017-03-25T12:28:56.026Z,737.88
2017-03-25T12:29:56.018Z,737.83
2017-03-25T12:30:56.011Z,737.84